createdAt,value
2023-02-19T00:03:50.369Z,79.87
2023-02-19T00:33:50.319Z,80
2023-02-19T01:03:50.347Z,80.8
2023-02-19T01:33:50.344Z,81.4
2023-02-19T02:03:50.342Z,82
2023-02-19T02:33:50.355Z,83.37
2023-02-19T03:03:50.347Z,84.37
2023-02-19T03:33:50.356Z,84.46
2023-02-19T04:03:50.361Z,84.53
2023-02-19T04:33:50.363Z,84.37
2023-02-19T05:03:50.364Z,84.25
2023-02-19T05:33:50.368Z,83.95
2023-02-19T06:03:50.471Z,83.87
2023-02-19T06:33:50.411Z,83.76
2023-02-19T07:03:50.458Z,83.57
2023-02-19T07:33:50.401Z,83.38
2023-02-19T08:03:50.641Z,82.69
2023-02-19T08:33:50.414Z,82.52
2023-02-19T09:03:50.446Z,81.64
2023-02-19T09:33:50.431Z,81.1
2023-02-19T10:03:50.435Z,81.05
2023-02-19T10:33:50.428Z,81.58
2023-02-19T11:03:50.424Z,81.06
2023-02-19T11:33:50.438Z,82.17
2023-02-19T12:03:50.439Z,81.52
2023-02-19T12:33:50.440Z,80.54
2023-02-19T13:03:50.454Z,84.82
2023-02-19T13:33:50.439Z,85.03
2023-02-19T14:03:50.451Z,83.41
2023-02-19T14:33:50.462Z,82.47
2023-02-19T15:03:50.482Z,80.73
2023-02-19T15:33:50.512Z,79.79
2023-02-19T16:03:50.499Z,79.32
2023-02-19T16:33:50.499Z,79.87
2023-02-19T17:03:50.517Z,80.17
2023-02-19T17:33:50.494Z,80.72
2023-02-19T18:03:50.525Z,81.24
2023-02-19T18:33:50.502Z,81.6
2023-02-19T19:03:50.519Z,81.99
2023-02-19T19:33:50.512Z,82.52
2023-02-19T20:03:50.512Z,82.44
2023-02-19T20:33:50.505Z,82.47
2023-02-19T21:03:50.507Z,82.57
2023-02-19T21:33:50.512Z,82.69
2023-02-19T22:03:50.525Z,82.92
2023-02-19T22:33:50.539Z,82.95
2023-02-19T23:03:50.571Z,84.4
2023-02-19T23:33:50.553Z,84.84
